Chana, Illinois
Current Conditions -  °F | °C
As of 12:15 PM on Thursday 29 Jan 2015 (Local Time) from KRPJ Reporting Station
Overcast Overcast  
Wind Chill: 22°   Ceiling: 1800
Heat Index: 33°   Visibility: 7mi
Dew Point: 28°   Wind: 18mph
Humidity: 83%   Direction: 320°NW
Pressure: 30"   Gusts: 28mph
Location:  41.98°N, 89.22°W
Report Text: KRPJ 291815Z AUTO 32016G24KT 7SM OVC018 01/M02 A3000 RMK AO2 T00051021
Loading
Personal Weather Stations






























Interactive Weather Map New forecast layout! Learn more

10-Day Weather Forecast

Advertisements
Track Severe Weather on mobile